Time;durP1;ratioP1;P1;durP2;ratioP2;P2;SDS_P1;SDS_P2;PMS_P1;PMS_P2;Temp;Humidity;BMP_temperature;BMP_pressure;BME280_temperature;BME280_humidity;BME280_pressure;Samples;Min_cycle;Max_cycle;Signal;HPM_P1;HPM_P2
2024/02/28 00:03:26;;;;;;;5.97;2.88;;;;;;;5.63;100.00;101938.75;10457011;28;20116;-69
2024/02/28 00:08:27;;;;;;;2.88;2.65;;;;;;;5.71;100.00;101925.47;10457719;28;20403;-68
2024/02/28 00:13:27;;;;;;;4.60;2.33;;;;;;;5.66;100.00;101916.97;10455639;28;20075;-70
2024/02/28 00:18:28;;;;;;;3.42;3.20;;;;;;;5.60;100.00;101920.22;10457096;28;20269;-68
2024/02/28 00:23:28;;;;;;;9.00;3.08;;;;;;;5.54;100.00;101915.41;10456616;28;20036;-69
2024/02/28 00:28:28;;;;;;;4.47;3.60;;;;;;;5.53;100.00;101919.09;10455673;28;20064;-69
2024/02/28 00:33:29;;;;;;;4.35;4.00;;;;;;;5.33;100.00;101911.00;10456590;28;20036;-69
2024/02/28 00:38:29;;;;;;;10.77;3.97;;;;;;;5.08;100.00;101915.03;10456441;28;20440;-68
2024/02/28 00:43:30;;;;;;;4.68;3.97;;;;;;;4.88;100.00;101911.44;10472011;28;20091;-69
2024/02/28 00:48:30;;;;;;;7.32;3.72;;;;;;;4.77;100.00;101919.59;10454976;28;20261;-69
2024/02/28 00:53:31;;;;;;;9.00;4.85;;;;;;;4.82;100.00;101927.25;10453902;28;20183;-68
2024/02/28 00:58:31;;;;;;;5.55;4.50;;;;;;;5.03;100.00;101928.00;10455776;28;20144;-68
2024/02/28 01:03:32;;;;;;;7.65;4.38;;;;;;;5.20;100.00;101933.72;10453877;28;20103;-68
2024/02/28 01:08:32;;;;;;;13.60;4.95;;;;;;;5.25;100.00;101918.03;10456058;28;20071;-68
2024/02/28 01:13:32;;;;;;;9.55;4.57;;;;;;;5.34;100.00;101920.75;10455637;28;20073;-68
2024/02/28 01:18:33;;;;;;;5.03;4.63;;;;;;;5.38;100.00;101912.41;10437789;28;20484;-68
2024/02/28 01:23:33;;;;;;;8.18;4.35;;;;;;;5.33;100.00;101923.59;10454835;28;20125;-69
2024/02/28 01:28:34;;;;;;;7.03;4.13;;;;;;;5.35;100.00;101906.31;10454660;28;20076;-69
2024/02/28 01:33:34;;;;;;;8.18;4.30;;;;;;;5.42;100.00;101909.31;10453320;28;20122;-69
2024/02/28 01:38:35;;;;;;;7.72;4.30;;;;;;;5.46;100.00;101907.22;10452995;28;20064;-68
2024/02/28 01:43:35;;;;;;;10.07;4.60;;;;;;;5.58;100.00;101914.13;10452931;28;20123;-67
2024/02/28 01:48:35;;;;;;;6.78;4.93;;;;;;;5.58;100.00;101912.31;10454316;28;20492;-68
2024/02/28 01:53:36;;;;;;;5.60;5.10;;;;;;;5.62;100.00;101920.94;10453377;28;20064;-69
2024/02/28 01:58:36;;;;;;;8.82;4.32;;;;;;;5.65;100.00;101909.03;10452773;28;20029;-69
2024/02/28 02:03:37;;;;;;;17.48;5.80;;;;;;;5.63;100.00;101909.19;10455114;28;20036;-69
2024/02/28 02:08:38;;;;;;;11.57;6.35;;;;;;;5.67;100.00;101912.44;10454167;28;20032;-68
2024/02/28 02:13:49;;;;;;;12.90;6.25;;;;;;;5.66;100.00;101913.44;10451871;28;20102;-69
2024/02/28 02:18:50;;;;;;;6.30;5.70;;;;;;;5.66;100.00;101908.91;10452258;28;20029;-69
2024/02/28 02:23:50;;;;;;;11.30;6.80;;;;;;;5.63;100.00;101913.72;10452185;28;20059;-68
2024/02/28 02:28:50;;;;;;;12.05;6.90;;;;;;;5.63;100.00;101917.25;10452238;28;20133;-68
2024/02/28 02:33:51;;;;;;;12.40;7.90;;;;;;;5.57;100.00;101909.75;10450756;28;20075;-69
2024/02/28 02:38:51;;;;;;;14.85;8.43;;;;;;;5.64;100.00;101915.41;10449961;28;20037;-68
2024/02/28 02:43:52;;;;;;;16.75;8.35;;;;;;;5.65;100.00;101901.84;10452106;28;20032;-69
2024/02/28 02:48:53;;;;;;;18.25;8.65;;;;;;;5.75;100.00;101902.69;10433590;28;20065;-69
2024/02/28 02:53:53;;;;;;;17.23;9.13;;;;;;;5.80;100.00;101900.41;10450066;28;20087;-68
2024/02/28 02:58:54;;;;;;;23.45;8.68;;;;;;;5.91;100.00;101895.91;10449814;28;20583;-68
2024/02/28 03:03:54;;;;;;;13.80;7.20;;;;;;;5.93;100.00;101891.25;10449493;28;20140;-69
2024/02/28 03:08:55;;;;;;;9.57;7.70;;;;;;;5.91;100.00;101885.16;10449674;28;20065;-67
2024/02/28 03:13:55;;;;;;;12.15;7.78;;;;;;;5.99;100.00;101888.84;10449349;28;20036;-68
2024/02/28 03:18:56;;;;;;;12.20;8.98;;;;;;;6.01;100.00;101894.94;10432382;28;20118;-69
2024/02/28 03:23:56;;;;;;;13.00;8.02;;;;;;;5.93;100.00;101883.19;10450377;28;20040;-68
2024/02/28 03:28:57;;;;;;;11.65;8.27;;;;;;;5.99;100.00;101882.63;10450443;28;20033;-68
2024/02/28 03:33:57;;;;;;;10.90;7.88;;;;;;;6.08;100.00;101883.59;10449797;28;20140;-69
2024/02/28 03:38:57;;;;;;;11.10;7.95;;;;;;;6.10;100.00;101884.31;10450171;28;20037;-68
2024/02/28 03:43:58;;;;;;;15.98;9.65;;;;;;;6.06;100.00;101891.81;10449940;28;20036;-68
2024/02/28 03:48:58;;;;;;;24.50;8.25;;;;;;;6.10;100.00;101882.47;10448766;28;20059;-68
2024/02/28 03:54:00;;;;;;;15.27;8.57;;;;;;;6.03;100.00;101876.81;10449513;28;20053;-68
2024/02/28 03:59:03;;;;;;;12.85;9.35;;;;;;;6.12;100.00;101891.22;10415773;28;20549;-69
2024/02/28 04:04:04;;;;;;;11.00;9.82;;;;;;;6.07;100.00;101890.81;10432375;28;20051;-68
2024/02/28 04:09:04;;;;;;;11.23;9.98;;;;;;;6.11;100.00;101891.38;10451949;28;20182;-68
2024/02/28 04:14:04;;;;;;;26.83;11.38;;;;;;;6.17;100.00;101888.13;10450715;28;20128;-69
2024/02/28 04:19:05;;;;;;;15.30;12.15;;;;;;;6.14;100.00;101894.63;10451133;28;20043;-68
2024/02/28 04:24:06;;;;;;;19.65;11.68;;;;;;;6.21;100.00;101902.97;10456761;28;20366;-68
2024/02/28 04:29:12;;;;;;;16.95;13.18;;;;;;;6.26;100.00;101904.25;10457036;28;20029;-69
2024/02/28 04:34:13;;;;;;;17.50;12.20;;;;;;;6.29;100.00;101917.41;10455455;28;20040;-68
2024/02/28 04:39:13;;;;;;;16.40;11.40;;;;;;;6.18;100.00;101920.25;10456576;28;20037;-68
2024/02/28 04:44:13;;;;;;;17.85;12.30;;;;;;;6.23;100.00;101917.97;10438171;28;20459;-68
2024/02/28 04:49:14;;;;;;;15.68;12.20;;;;;;;6.26;100.00;101917.69;10456306;28;20399;-68
2024/02/28 04:54:14;;;;;;;16.63;12.80;;;;;;;6.23;100.00;101909.91;10454372;28;20115;-68
2024/02/28 04:59:15;;;;;;;14.98;12.98;;;;;;;6.32;100.00;101916.28;10454641;28;20493;-68
2024/02/28 05:04:15;;;;;;;24.08;13.38;;;;;;;6.24;100.00;101918.81;10454471;28;20162;-68
2024/02/28 05:09:16;;;;;;;16.90;12.73;;;;;;;6.27;100.00;101910.47;10454075;28;20389;-70
2024/02/28 05:14:16;;;;;;;41.78;15.02;;;;;;;6.40;100.00;101915.53;10438482;28;20119;-69
2024/02/28 05:19:19;;;;;;;14.45;12.25;;;;;;;6.32;100.00;101913.59;10453834;28;20049;-68
2024/02/28 05:24:20;;;;;;;23.25;11.70;;;;;;;6.28;100.00;101929.13;10453099;28;20051;-70
2024/02/28 05:29:20;;;;;;;15.18;11.48;;;;;;;6.29;100.00;101927.31;10453956;28;20132;-68
2024/02/28 05:34:21;;;;;;;13.20;11.85;;;;;;;6.29;100.00;101917.41;10453451;28;20033;-69
2024/02/28 05:39:22;;;;;;;19.23;12.43;;;;;;;6.29;100.00;101911.19;10371196;28;20061;-68
2024/02/28 05:44:22;;;;;;;23.02;13.43;;;;;;;6.32;100.00;101910.00;10494940;28;20048;-70
2024/02/28 05:49:23;;;;;;;17.63;11.15;;;;;;;6.39;100.00;101916.53;10476902;28;20571;-69
2024/02/28 05:54:23;;;;;;;14.93;12.55;;;;;;;6.46;100.00;101912.25;10494516;28;20127;-70
2024/02/28 05:59:25;;;;;;;21.45;15.50;;;;;;;6.49;100.00;101915.50;10476166;28;20416;-69
2024/02/28 06:04:25;;;;;;;21.20;13.10;;;;;;;6.51;100.00;101912.69;10509738;28;20089;-69
2024/02/28 06:09:27;;;;;;;17.20;12.52;;;;;;;6.48;100.00;101915.66;10494464;28;20062;-69
2024/02/28 06:14:27;;;;;;;29.42;13.55;;;;;;;6.41;100.00;101910.00;10493932;28;20025;-68
2024/02/28 06:19:28;;;;;;;25.02;14.00;;;;;;;6.45;100.00;101921.34;10492786;28;20098;-68
2024/02/28 06:24:28;;;;;;;20.55;14.00;;;;;;;6.45;100.00;101932.09;10491966;28;20393;-67
2024/02/28 06:29:29;;;;;;;18.83;14.73;;;;;;;6.51;100.00;101936.91;10493612;28;20118;-69
2024/02/28 06:34:29;;;;;;;18.95;14.60;;;;;;;6.48;100.00;101953.34;10491625;28;20028;-68
2024/02/28 06:39:30;;;;;;;28.13;14.48;;;;;;;6.55;100.00;101953.59;10493252;28;20040;-67
2024/02/28 06:44:30;;;;;;;18.90;13.25;;;;;;;6.62;100.00;101952.03;10492722;28;20036;-68
2024/02/28 06:49:30;;;;;;;17.13;14.30;;;;;;;6.63;100.00;101965.31;10492700;28;20098;-68
2024/02/28 06:54:31;;;;;;;28.90;16.42;;;;;;;6.58;100.00;101967.63;10492124;28;20055;-68
2024/02/28 06:59:32;;;;;;;19.83;15.07;;;;;;;6.63;100.00;101970.69;10492524;28;20088;-68
2024/02/28 07:04:32;;;;;;;22.15;14.00;;;;;;;6.67;100.00;101960.53;10492305;28;20047;-68
2024/02/28 07:09:33;;;;;;;22.20;13.50;;;;;;;6.71;100.00;101970.00;10492494;28;20040;-69
2024/02/28 07:14:33;;;;;;;15.25;13.70;;;;;;;6.68;100.00;101979.19;10492323;28;20124;-68
2024/02/28 07:19:33;;;;;;;16.02;14.02;;;;;;;6.61;100.00;101983.47;10493064;28;20068;-69
2024/02/28 07:24:34;;;;;;;22.42;17.25;;;;;;;6.62;100.00;101979.78;10491255;28;20060;-68
2024/02/28 07:29:36;;;;;;;24.42;15.73;;;;;;;6.62;100.00;101977.09;10491425;28;20063;-68
2024/02/28 07:34:37;;;;;;;27.15;17.92;;;;;;;6.66;100.00;101983.03;10473675;28;20029;-69
2024/02/28 07:39:37;;;;;;;26.73;17.23;;;;;;;6.77;100.00;101984.72;10492012;28;20035;-68
2024/02/28 07:44:38;;;;;;;22.00;17.52;;;;;;;6.81;100.00;101995.03;10490238;28;20035;-69
2024/02/28 07:49:38;;;;;;;31.15;19.08;;;;;;;6.90;100.00;101996.00;10473345;28;20033;-68
2024/02/28 07:54:42;;;;;;;22.80;19.60;;;;;;;7.01;100.00;102011.13;10492131;28;20102;-69
2024/02/28 07:59:42;;;;;;;24.55;19.17;;;;;;;6.98;100.00;102015.81;10498221;28;20032;-69
2024/02/28 08:04:43;;;;;;;30.38;19.20;;;;;;;6.96;100.00;102012.44;10481345;28;20032;-68
2024/02/28 08:09:43;;;;;;;21.00;16.23;;;;;;;7.05;100.00;102007.13;10499235;28;20033;-67
2024/02/28 08:14:44;;;;;;;23.92;16.55;;;;;;;7.02;100.00;102026.28;10497482;28;20025;-69
2024/02/28 08:19:44;;;;;;;31.85;18.17;;;;;;;7.16;100.00;102034.75;10498834;28;20123;-68
2024/02/28 08:24:44;;;;;;;22.52;16.67;;;;;;;7.20;100.00;102036.16;10496875;28;20120;-69
2024/02/28 08:29:45;;;;;;;34.45;21.73;;;;;;;7.33;100.00;102045.75;10498456;28;20462;-68
2024/02/28 08:34:46;;;;;;;28.95;15.80;;;;;;;7.47;100.00;102034.50;10498318;28;20032;-69
2024/02/28 08:39:46;;;;;;;26.13;18.00;;;;;;;7.48;100.00;102046.97;10498759;28;20408;-68
2024/02/28 08:44:47;;;;;;;22.02;17.63;;;;;;;7.40;100.00;102046.84;10496456;28;20071;-68
2024/02/28 08:49:48;;;;;;;24.55;17.48;;;;;;;7.45;100.00;102041.88;10497609;28;20036;-68
2024/02/28 08:54:48;;;;;;;26.38;18.52;;;;;;;7.39;100.00;102039.75;10496270;28;20052;-70
2024/02/28 08:59:50;;;;;;;33.78;17.05;;;;;;;7.53;100.00;102033.91;10496514;28;20641;-70
2024/02/28 09:04:52;;;;;;;21.48;17.17;;;;;;;7.71;100.00;102039.31;10496123;28;20041;-69
2024/02/28 09:09:53;;;;;;;20.80;17.50;;;;;;;7.80;100.00;102046.50;10497197;28;20036;-70
2024/02/28 09:14:57;;;;;;;21.92;17.02;;;;;;;7.97;100.00;102038.59;10495399;28;20036;-68
2024/02/28 09:20:00;;;;;;;18.80;16.85;;;;;;;8.26;100.00;102038.34;10495154;28;20033;-69
2024/02/28 09:25:05;;;;;;;24.63;18.85;;;;;;;8.36;100.00;102047.25;10495460;28;20048;-68
2024/02/28 09:30:06;;;;;;;20.13;16.08;;;;;;;8.48;100.00;102047.88;10495423;28;20037;-69
2024/02/28 09:35:06;;;;;;;20.65;18.50;;;;;;;8.39;100.00;102060.44;10495215;28;20036;-67
2024/02/28 09:40:09;;;;;;;25.27;15.93;;;;;;;8.30;100.00;102064.06;10495149;28;20037;-67
2024/02/28 09:45:10;;;;;;;24.42;16.83;;;;;;;8.24;100.00;102054.72;10494981;28;20036;-68
2024/02/28 09:50:11;;;;;;;26.70;17.10;;;;;;;8.23;100.00;102054.84;10493825;28;20090;-70
2024/02/28 09:55:12;;;;;;;27.60;17.35;;;;;;;8.15;100.00;102040.28;10492411;28;20518;-68
2024/02/28 10:00:12;;;;;;;27.30;20.77;;;;;;;8.12;100.00;102031.66;10494666;28;20040;-68
2024/02/28 10:05:13;;;;;;;30.73;19.52;;;;;;;8.30;100.00;102037.06;10494752;28;20035;-69
2024/02/28 10:10:14;;;;;;;32.65;20.02;;;;;;;8.41;100.00;102033.31;10493477;28;20070;-69
2024/02/28 10:15:14;;;;;;;28.40;20.15;;;;;;;8.59;100.00;102029.59;10477525;28;20139;-69
2024/02/28 10:20:14;;;;;;;27.27;20.25;;;;;;;8.69;100.00;102034.03;10493191;28;20028;-68
2024/02/28 10:25:15;;;;;;;25.48;20.02;;;;;;;8.67;100.00;102034.19;10494582;28;20514;-68
2024/02/28 10:30:17;;;;;;;30.42;20.20;;;;;;;8.66;100.00;102028.97;10496023;28;20055;-69
2024/02/28 10:35:19;;;;;;;25.63;18.77;;;;;;;8.78;100.00;102033.94;10496290;28;20036;-68
2024/02/28 10:40:20;;;;;;;25.23;17.33;;;;;;;8.91;100.00;102033.53;10502135;28;20412;-68
2024/02/28 10:45:20;;;;;;;22.80;16.75;;;;;;;9.00;100.00;102032.56;10494404;28;20047;-68
2024/02/28 10:50:21;;;;;;;18.52;15.65;;;;;;;9.01;100.00;102033.41;10493764;28;20035;-69
2024/02/28 10:55:24;;;;;;;20.35;15.90;;;;;;;9.14;100.00;102039.22;10492771;28;20076;-69
2024/02/28 11:00:25;;;;;;;24.50;19.23;;;;;;;9.08;100.00;102032.59;10475598;28;20115;-67
2024/02/28 11:05:38;;;;;;;20.92;18.67;;;;;;;9.11;100.00;102036.84;10491433;28;20367;-69
2024/02/28 11:10:46;;;;;;;28.60;18.95;;;;;;;9.15;100.00;102035.50;10492242;28;20016;-69
2024/02/28 11:15:46;;;;;;;31.55;19.15;;;;;;;9.45;100.00;102030.63;10490986;28;20056;-69
2024/02/28 11:20:48;;;;;;;30.77;20.30;;;;;;;9.42;100.00;102028.25;10492639;28;20139;-68
2024/02/28 11:25:49;;;;;;;20.90;16.35;;;;;;;9.76;100.00;102025.47;10491793;28;20061;-69
2024/02/28 11:30:49;;;;;;;20.88;13.80;;;;;;;9.80;100.00;102026.84;10472718;28;20116;-68
2024/02/28 11:35:59;;;;;;;24.17;15.35;;;;;;;9.80;100.00;102018.75;10490359;28;20039;-69
2024/02/28 11:41:00;;;;;;;15.98;13.65;;;;;;;9.69;100.00;102019.88;10473522;28;20047;-68
2024/02/28 11:46:00;;;;;;;23.67;16.25;;;;;;;9.59;100.00;102010.22;10490122;28;20029;-69
2024/02/28 11:51:01;;;;;;;26.25;16.67;;;;;;;9.60;100.00;102022.72;10490588;28;20032;-68
2024/02/28 11:56:01;;;;;;;20.42;13.50;;;;;;;9.72;100.00;102019.53;10491478;28;20138;-68
2024/02/28 12:01:02;;;;;;;24.30;20.17;;;;;;;9.60;100.00;102020.00;10491593;28;20128;-70
2024/02/28 12:06:03;;;;;;;32.30;21.45;;;;;;;9.50;100.00;102017.44;10491195;28;20024;-69
2024/02/28 12:11:07;;;;;;;27.98;21.05;;;;;;;9.22;100.00;102016.81;10490776;28;20024;-68
2024/02/28 12:16:08;;;;;;;23.42;17.70;;;;;;;9.35;100.00;102021.75;10490654;28;20025;-69
2024/02/28 12:21:09;;;;;;;30.92;23.65;;;;;;;9.44;100.00;102013.53;10490839;28;20041;-69
2024/02/28 12:26:09;;;;;;;34.63;23.63;;;;;;;9.47;100.00;102005.09;10489791;28;20039;-69
2024/02/28 12:31:11;;;;;;;28.33;18.42;;;;;;;9.57;100.00;101987.88;10490216;28;20066;-70
2024/02/28 12:36:12;;;;;;;24.95;19.58;;;;;;;9.66;100.00;102001.25;10489881;28;20031;-69
2024/02/28 12:41:12;;;;;;;20.52;13.82;;;;;;;9.60;100.00;102001.06;10493804;28;20055;-69
2024/02/28 12:46:12;;;;;;;21.60;15.27;;;;;;;9.63;100.00;101993.47;10495541;28;20045;-68
2024/02/28 12:51:39;;;;;;;25.50;15.20;;;;;;;9.66;100.00;101993.16;10497204;28;20032;-71
2024/02/28 12:56:39;;;;;;;24.33;14.47;;;;;;;9.76;100.00;101985.75;10495774;28;20048;-68
2024/02/28 13:01:40;;;;;;;22.90;15.55;;;;;;;9.87;100.00;101987.28;10497124;28;20051;-68
2024/02/28 13:06:40;;;;;;;25.75;19.52;;;;;;;9.76;100.00;101984.88;10478728;28;20032;-70
2024/02/28 13:11:40;;;;;;;30.38;20.15;;;;;;;9.68;100.00;101976.78;10495182;28;20468;-68
2024/02/28 13:16:41;;;;;;;36.33;21.48;;;;;;;9.46;100.00;101975.53;10495318;28;20032;-69
2024/02/28 13:21:42;;;;;;;53.60;20.50;;;;;;;9.47;100.00;101958.28;10494307;28;20361;-69
2024/02/28 13:26:42;;;;;;;25.17;18.67;;;;;;;9.63;100.00;101958.31;10494995;28;20017;-69
2024/02/28 13:31:43;;;;;;;41.15;19.13;;;;;;;9.67;100.00;101942.63;10494529;28;20626;-68
2024/02/28 13:36:43;;;;;;;30.55;20.55;;;;;;;9.80;100.00;101926.75;10495380;28;20078;-69
2024/02/28 13:41:43;;;;;;;30.90;19.88;;;;;;;9.59;100.00;101913.69;10496074;28;20032;-69
2024/02/28 13:46:47;;;;;;;30.27;19.27;;;;;;;9.69;100.00;101908.13;10477778;28;20047;-70
2024/02/28 13:51:49;;;;;;;31.65;18.70;;;;;;;9.63;100.00;101897.97;10493403;28;20032;-69
2024/02/28 13:56:49;;;;;;;27.63;18.75;;;;;;;9.64;100.00;101895.13;10494847;28;20652;-69
2024/02/28 14:01:50;;;;;;;33.72;20.52;;;;;;;9.67;100.00;101899.38;10493478;28;20108;-69
2024/02/28 14:06:50;;;;;;;32.10;20.77;;;;;;;9.62;100.00;101899.00;10493426;28;20040;-69
2024/02/28 14:11:51;;;;;;;28.35;20.33;;;;;;;9.56;100.00;101895.09;10494255;28;20056;-69
2024/02/28 14:16:51;;;;;;;27.98;20.42;;;;;;;9.67;100.00;101881.28;10494335;28;20020;-68
2024/02/28 14:21:52;;;;;;;25.90;18.52;;;;;;;9.72;100.00;101873.47;10491931;28;20107;-68
2024/02/28 14:26:52;;;;;;;26.00;19.42;;;;;;;9.71;100.00;101865.56;10494154;28;20025;-69
2024/02/28 14:31:53;;;;;;;26.80;17.98;;;;;;;9.70;100.00;101859.31;10493785;28;20068;-69
2024/02/28 14:36:53;;;;;;;22.92;18.35;;;;;;;9.66;100.00;101851.69;10491871;28;20024;-69
2024/02/28 14:41:54;;;;;;;30.85;18.13;;;;;;;9.70;100.00;101844.91;10493059;28;20418;-69
2024/02/28 14:46:57;;;;;;;23.50;15.90;;;;;;;9.67;100.00;101845.28;10493371;28;20361;-69
2024/02/28 14:51:59;;;;;;;19.15;15.45;;;;;;;9.63;100.00;101844.72;10491011;28;20024;-70
2024/02/28 14:57:00;;;;;;;12.43;10.25;;;;;;;9.66;100.00;101868.75;10491367;28;20210;-69
2024/02/28 15:02:00;;;;;;;11.85;10.77;;;;;;;9.50;100.00;101860.63;10492417;28;20032;-68
2024/02/28 15:07:02;;;;;;;20.23;11.98;;;;;;;9.51;100.00;101868.56;10492819;28;20161;-70
2024/02/28 15:12:03;;;;;;;18.75;13.93;;;;;;;9.44;100.00;101862.13;10492152;28;20455;-69
2024/02/28 15:17:04;;;;;;;13.98;12.52;;;;;;;9.21;100.00;101850.25;10490368;28;20035;-68
2024/02/28 15:22:05;;;;;;;15.20;12.60;;;;;;;9.41;100.00;101843.56;10491706;28;20107;-70
2024/02/28 15:27:06;;;;;;;24.60;15.60;;;;;;;9.45;100.00;101841.38;10490540;28;20074;-69
2024/02/28 15:32:06;;;;;;;22.10;15.82;;;;;;;9.36;100.00;101835.09;10492104;28;20477;-71
2024/02/28 15:37:08;;;;;;;22.08;14.98;;;;;;;9.34;100.00;101829.00;10490415;28;20028;-70
2024/02/28 15:42:10;;;;;;;22.70;16.25;;;;;;;9.49;100.00;101811.09;10474343;28;20130;-69
2024/02/28 15:47:11;;;;;;;17.58;14.15;;;;;;;9.64;100.00;101824.81;10490695;28;20051;-68
2024/02/28 15:52:12;;;;;;;16.73;14.00;;;;;;;9.69;100.00;101799.94;10491094;28;20040;-69
2024/02/28 15:57:12;;;;;;;16.23;13.75;;;;;;;9.63;100.00;101806.88;10489811;28;20392;-70
2024/02/28 16:02:13;;;;;;;17.02;14.20;;;;;;;9.44;100.00;101805.34;10489821;28;20032;-68
2024/02/28 16:07:15;;;;;;;14.50;12.38;;;;;;;9.34;100.00;101796.56;10489779;28;20513;-69
2024/02/28 16:12:16;;;;;;;11.88;10.88;;;;;;;9.23;100.00;101797.75;10491493;28;20032;-68
2024/02/28 16:17:16;;;;;;;13.20;10.52;;;;;;;9.20;100.00;101794.53;10496473;28;20032;-67
2024/02/28 16:22:17;;;;;;;10.98;9.88;;;;;;;8.99;100.00;101793.13;10498682;28;20112;-67
2024/02/28 16:27:18;;;;;;;12.48;10.70;;;;;;;9.01;100.00;101795.66;10499595;28;20063;-68
2024/02/28 16:32:18;;;;;;;16.73;14.75;;;;;;;8.88;100.00;101782.63;10499312;28;20052;-68
2024/02/28 16:37:18;;;;;;;18.20;12.52;;;;;;;8.89;100.00;101786.19;10498689;28;20127;-69
2024/02/28 16:42:19;;;;;;;13.07;11.45;;;;;;;8.81;100.00;101777.06;10496865;28;20085;-69
2024/02/28 16:47:19;;;;;;;16.30;13.50;;;;;;;8.92;100.00;101769.66;10496694;28;20060;-67
2024/02/28 16:52:20;;;;;;;10.80;9.43;;;;;;;8.89;100.00;101762.72;10496320;28;20033;-68
2024/02/28 16:57:20;;;;;;;10.75;9.73;;;;;;;8.86;100.00;101757.63;10497556;28;20476;-69
2024/02/28 17:02:21;;;;;;;15.32;9.55;;;;;;;8.80;100.00;101763.69;10495888;28;20472;-68
2024/02/28 17:07:21;;;;;;;13.68;8.85;;;;;;;8.92;100.00;101764.25;10495824;28;20048;-68
2024/02/28 17:12:22;;;;;;;17.83;9.77;;;;;;;8.91;100.00;101773.38;10497006;28;20059;-68
2024/02/28 17:17:23;;;;;;;13.32;6.90;;;;;;;8.81;100.00;101747.34;10495423;28;20029;-68
2024/02/28 17:22:24;;;;;;;10.82;8.40;;;;;;;8.75;100.00;101749.88;10496199;28;20025;-69
2024/02/28 17:27:24;;;;;;;10.55;6.68;;;;;;;8.81;100.00;101746.50;10495345;28;20034;-69
2024/02/28 17:32:26;;;;;;;8.23;6.80;;;;;;;8.89;100.00;101745.66;10495924;28;20405;-69
2024/02/28 17:37:27;;;;;;;11.48;8.05;;;;;;;8.92;100.00;101748.88;10496337;28;20071;-69
2024/02/28 17:42:30;;;;;;;7.22;6.63;;;;;;;8.86;100.00;101749.53;10495874;28;20032;-68
2024/02/28 17:47:31;;;;;;;6.32;5.85;;;;;;;8.89;100.00;101751.06;10495611;28;20032;-68
2024/02/28 17:52:31;;;;;;;10.38;7.43;;;;;;;8.88;100.00;101741.28;10494982;28;20024;-68
2024/02/28 17:57:35;;;;;;;14.82;7.25;;;;;;;9.02;100.00;101735.22;10494921;28;20170;-68
2024/02/28 18:02:35;;;;;;;8.07;6.30;;;;;;;8.94;100.00;101730.66;10495082;28;20035;-69
2024/02/28 18:07:36;;;;;;;7.60;6.78;;;;;;;8.94;100.00;101730.66;10493377;28;20024;-68
2024/02/28 18:12:39;;;;;;;6.20;5.57;;;;;;;8.85;100.00;101734.34;10494826;28;20032;-69
2024/02/28 18:17:40;;;;;;;7.60;6.60;;;;;;;8.93;100.00;101723.53;10495236;28;20031;-68
2024/02/28 18:22:40;;;;;;;4.68;4.28;;;;;;;8.97;100.00;101719.53;10494749;28;20043;-69
2024/02/28 18:27:45;;;;;;;7.03;6.32;;;;;;;8.95;100.00;101726.09;10493420;28;20032;-69
2024/02/28 18:32:47;;;;;;;17.33;7.13;;;;;;;8.84;100.00;101708.38;10494004;28;20024;-69
2024/02/28 18:37:47;;;;;;;8.30;5.53;;;;;;;8.91;100.00;101714.78;10493392;28;20492;-68
2024/02/28 18:42:48;;;;;;;7.13;6.15;;;;;;;8.71;100.00;101698.03;10494031;28;20144;-69
2024/02/28 18:47:48;;;;;;;8.07;7.28;;;;;;;8.72;100.00;101698.88;10494043;28;20036;-69
2024/02/28 18:52:49;;;;;;;11.75;6.82;;;;;;;8.77;100.00;101699.22;10492633;28;20037;-69
2024/02/28 18:57:49;;;;;;;7.55;6.20;;;;;;;8.77;100.00;101683.00;10493218;28;20037;-68
2024/02/28 19:02:50;;;;;;;5.90;5.32;;;;;;;8.93;100.00;101695.69;10492805;28;20037;-70
2024/02/28 19:07:51;;;;;;;6.70;6.00;;;;;;;8.89;100.00;101678.97;10492558;28;20074;-68
2024/02/28 19:12:51;;;;;;;6.43;5.72;;;;;;;8.88;100.00;101674.59;10492395;28;20125;-69
2024/02/28 19:17:52;;;;;;;5.95;5.22;;;;;;;8.83;100.00;101676.94;10492389;28;20052;-70
2024/02/28 19:22:52;;;;;;;7.55;6.65;;;;;;;8.83;100.00;101677.78;10491991;28;20498;-68
2024/02/28 19:27:53;;;;;;;10.13;7.82;;;;;;;8.56;100.00;101654.63;10492606;28;20116;-69
2024/02/28 19:32:55;;;;;;;6.75;5.97;;;;;;;8.42;100.00;101666.06;10490800;28;20058;-70
2024/02/28 19:37:56;;;;;;;12.20;6.78;;;;;;;8.42;100.00;101657.13;10473784;28;20040;-70
2024/02/28 19:42:56;;;;;;;16.08;7.55;;;;;;;8.27;100.00;101652.34;10485195;28;20032;-69
2024/02/28 19:47:57;;;;;;;12.45;8.07;;;;;;;8.16;100.00;101653.47;10489724;28;20056;-70
2024/02/28 19:52:57;;;;;;;8.32;7.40;;;;;;;8.28;100.00;101653.19;10496997;28;20029;-70
2024/02/28 19:57:58;;;;;;;9.68;7.68;;;;;;;8.23;100.00;101644.72;10496226;28;20107;-69
2024/02/28 20:02:58;;;;;;;12.35;8.23;;;;;;;7.99;100.00;101648.19;10497798;28;20099;-70
2024/02/28 20:07:58;;;;;;;12.85;8.02;;;;;;;7.77;100.00;101638.81;10499240;28;20120;-69
2024/02/28 20:13:00;;;;;;;15.50;9.20;;;;;;;7.74;100.00;101652.63;10481482;28;20073;-68
2024/02/28 20:18:04;;;;;;;13.20;9.50;;;;;;;7.69;100.00;101618.91;10499435;28;20028;-69
2024/02/28 20:23:05;;;;;;;10.82;8.27;;;;;;;7.52;100.00;101618.97;10498980;28;20047;-68
2024/02/28 20:28:06;;;;;;;10.52;7.93;;;;;;;7.34;100.00;101610.94;10497751;28;20020;-69
2024/02/28 20:33:06;;;;;;;9.27;8.18;;;;;;;7.33;100.00;101602.00;10497499;28;20029;-69
2024/02/28 20:38:08;;;;;;;10.10;8.18;;;;;;;7.38;100.00;101599.69;10497660;28;20060;-68
2024/02/28 20:43:10;;;;;;;8.45;7.65;;;;;;;7.40;100.00;101599.53;10496100;28;20113;-69
2024/02/28 20:48:10;;;;;;;9.98;6.80;;;;;;;7.44;100.00;101584.75;10479353;28;20024;-71
2024/02/28 20:53:12;;;;;;;10.30;7.70;;;;;;;7.46;100.00;101588.09;10495608;28;20064;-68
2024/02/28 20:58:14;;;;;;;8.48;6.70;;;;;;;7.51;100.00;101564.22;10496667;28;20029;-70
2024/02/28 21:03:14;;;;;;;11.15;8.50;;;;;;;7.60;100.00;101565.13;10496320;28;20115;-69
2024/02/28 21:08:15;;;;;;;13.57;8.10;;;;;;;7.72;100.00;101576.44;10494870;28;20029;-69
2024/02/28 21:13:16;;;;;;;11.50;7.05;;;;;;;7.67;100.00;101558.91;10494675;28;20059;-68
2024/02/28 21:18:16;;;;;;;9.32;8.20;;;;;;;7.77;100.00;101561.47;10494968;28;20036;-69
2024/02/28 21:23:17;;;;;;;12.30;7.43;;;;;;;7.80;100.00;101552.22;10494888;28;20400;-69
2024/02/28 21:28:17;;;;;;;8.55;7.47;;;;;;;7.75;100.00;101528.41;10495467;28;20071;-69
2024/02/28 21:33:18;;;;;;;11.65;8.55;;;;;;;7.87;100.00;101534.38;10477958;28;20076;-69
2024/02/28 21:38:18;;;;;;;10.13;8.00;;;;;;;7.84;100.00;101526.59;10494731;28;20025;-68
2024/02/28 21:43:19;;;;;;;11.63;6.47;;;;;;;7.81;100.00;101508.06;10494454;28;20436;-70
2024/02/28 21:48:19;;;;;;;8.02;7.22;;;;;;;7.81;100.00;101505.34;10495407;28;20162;-68
2024/02/28 21:53:19;;;;;;;12.50;7.28;;;;;;;7.81;100.00;101516.16;10494223;28;20056;-69
2024/02/28 21:58:20;;;;;;;9.18;8.35;;;;;;;7.85;100.00;101512.13;10494240;28;20397;-68
2024/02/28 22:03:20;;;;;;;10.60;8.32;;;;;;;7.88;100.00;101511.78;10495010;28;20107;-69
2024/02/28 22:08:21;;;;;;;16.17;8.98;;;;;;;8.00;100.00;101505.06;10493593;28;20115;-69
2024/02/28 22:13:21;;;;;;;10.63;9.00;;;;;;;8.00;100.00;101496.13;10494292;28;20024;-71
2024/02/28 22:18:22;;;;;;;14.95;10.02;;;;;;;8.04;100.00;101489.38;10493235;28;20438;-68
2024/02/28 22:23:22;;;;;;;10.05;7.65;;;;;;;8.06;100.00;101477.44;10475924;28;20060;-68
2024/02/28 22:28:22;;;;;;;11.88;9.05;;;;;;;7.98;100.00;101465.81;10494317;28;20073;-68
2024/02/28 22:33:23;;;;;;;10.43;8.48;;;;;;;7.82;100.00;101472.03;10475931;28;20504;-68
2024/02/28 22:38:23;;;;;;;9.75;8.43;;;;;;;7.74;100.00;101459.34;10491874;28;20117;-68
2024/02/28 22:43:24;;;;;;;16.75;9.50;;;;;;;7.80;100.00;101449.75;10492855;28;20024;-69